Time;durP1;ratioP1;P1;durP2;ratioP2;P2;SDS_P1;SDS_P2;PMS_P1;PMS_P2;Temp;Humidity;BMP_temperature;BMP_pressure;BME280_temperature;BME280_humidity;BME280_pressure;Samples;Min_cycle;Max_cycle;Signal;HPM_P1;HPM_P2
2021/03/18 00:02:08;;;;;;;8.85;4.30;;;;;;;-0.80;100.00;101694.84;5010015;28;20069;-76
2021/03/18 00:04:35;;;;;;;10.57;5.13;;;;;;;-0.60;100.00;101688.03;5016314;28;20038;-76
2021/03/18 00:07:02;;;;;;;7.15;3.88;;;;;;;-0.33;98.72;101687.25;5004912;28;20061;-76
2021/03/18 00:09:29;;;;;;;11.43;4.53;;;;;;;-0.76;99.58;101688.84;5009116;28;20111;-76
2021/03/18 00:11:56;;;;;;;7.47;4.07;;;;;;;-0.69;99.80;101688.00;5020431;28;20241;-76
2021/03/18 00:14:24;;;;;;;8.00;4.43;;;;;;;-0.74;99.98;101687.13;5029203;28;20981;-76
2021/03/18 00:16:51;;;;;;;8.23;4.82;;;;;;;-0.86;100.00;101680.16;4993795;28;20064;-76
2021/03/18 00:19:20;;;;;;;8.70;4.88;;;;;;;-0.83;100.00;101687.94;5013065;28;20064;-76
2021/03/18 00:21:47;;;;;;;11.05;5.07;;;;;;;-0.87;100.00;101681.00;4989254;28;20049;-76
2021/03/18 00:24:14;;;;;;;9.57;5.07;;;;;;;-0.83;100.00;101679.31;4994779;28;20081;-77
2021/03/18 00:26:41;;;;;;;9.23;4.57;;;;;;;-0.93;100.00;101678.41;5015694;28;21004;-77
2021/03/18 00:29:08;;;;;;;8.23;4.95;;;;;;;-1.11;100.00;101684.34;5010047;28;20034;-76
2021/03/18 00:31:53;;;;;;;8.23;4.25;;;;;;;-1.11;100.00;101683.47;5007881;28;20081;-76
2021/03/18 00:34:19;;;;;;;7.63;5.07;;;;;;;-0.85;100.00;101679.31;5011417;28;20062;-76
2021/03/18 00:36:46;;;;;;;8.25;4.78;;;;;;;-0.97;100.00;101673.22;5012650;28;20064;-76
2021/03/18 00:39:14;;;;;;;10.00;4.82;;;;;;;-1.00;100.00;101673.19;5012694;28;20058;-76
2021/03/18 00:41:40;;;;;;;9.18;4.78;;;;;;;-0.65;100.00;101661.28;5007214;28;20053;-76
2021/03/18 00:44:07;;;;;;;10.27;5.15;;;;;;;-0.87;100.00;101667.22;5012730;28;20061;-76
2021/03/18 00:46:34;;;;;;;9.65;5.18;;;;;;;-0.85;100.00;101663.81;5012636;28;20149;-76
2021/03/18 00:49:01;;;;;;;9.13;4.60;;;;;;;-1.14;100.00;101662.78;4995766;28;20053;-76
2021/03/18 00:51:27;;;;;;;10.57;5.80;;;;;;;-0.79;100.00;101656.06;5011284;28;20148;-76
2021/03/18 00:53:54;;;;;;;9.48;4.85;;;;;;;-0.87;100.00;101650.00;5008001;28;20056;-76
2021/03/18 00:56:22;;;;;;;7.85;5.32;;;;;;;-1.15;100.00;101656.75;5013718;28;20640;-77
2021/03/18 00:58:52;;;;;;;10.48;5.18;;;;;;;-0.80;100.00;101645.72;4994524;28;20053;-76
2021/03/18 01:01:21;;;;;;;11.18;5.15;;;;;;;-0.59;100.00;101640.63;4993515;28;20568;-76
2021/03/18 01:03:48;;;;;;;8.30;5.45;;;;;;;-0.60;99.92;101638.03;5009211;28;20058;-76
2021/03/18 01:06:21;;;;;;;7.25;4.60;;;;;;;-0.66;100.00;101638.03;4989850;28;21122;-77
2021/03/18 01:08:49;;;;;;;8.73;4.82;;;;;;;-0.54;100.00;101650.97;5016489;28;20136;-76
2021/03/18 01:11:21;;;;;;;13.88;5.18;;;;;;;-0.67;99.32;101646.66;4991436;28;20508;-76
2021/03/18 01:13:51;;;;;;;11.70;5.72;;;;;;;-0.87;100.00;101654.31;4992578;28;20081;-76
2021/03/18 01:16:23;;;;;;;8.98;5.95;;;;;;;-0.85;100.00;101644.84;4984806;28;20068;-75
2021/03/18 01:18:55;;;;;;;9.15;4.97;;;;;;;-0.48;100.00;101644.97;5022637;28;20176;-75
2021/03/18 01:21:26;;;;;;;11.98;4.97;;;;;;;-0.65;99.37;101638.00;5021796;28;20500;-75
2021/03/18 01:23:53;;;;;;;12.95;4.70;;;;;;;-0.85;100.00;101637.97;4998306;28;20156;-77
2021/03/18 01:26:19;;;;;;;9.93;5.22;;;;;;;-0.96;100.00;101642.19;5010021;28;20065;-76
2021/03/18 01:28:46;;;;;;;9.77;4.85;;;;;;;-0.71;100.00;101639.72;4989994;28;20068;-75
2021/03/18 01:31:13;;;;;;;11.57;5.32;;;;;;;-0.74;100.00;101637.13;5008046;28;20533;-75
2021/03/18 01:33:41;;;;;;;8.60;4.78;;;;;;;-0.66;100.00;101645.78;5004186;28;20053;-75
2021/03/18 01:36:13;;;;;;;9.57;6.03;;;;;;;-0.69;100.00;101640.59;5012107;28;20049;-76
2021/03/18 01:38:41;;;;;;;10.00;5.75;;;;;;;-0.74;100.00;101648.31;5004938;28;20765;-75
2021/03/18 01:41:08;;;;;;;12.02;6.07;;;;;;;-0.62;100.00;101647.53;4997384;28;20051;-76
2021/03/18 01:43:35;;;;;;;13.85;7.18;;;;;;;-0.55;100.00;101650.13;5005303;28;20699;-76
2021/03/18 01:46:02;;;;;;;10.85;6.03;;;;;;;-0.53;100.00;101647.56;5015965;28;20133;-76
2021/03/18 01:48:29;;;;;;;8.55;5.35;;;;;;;-0.47;100.00;101642.38;5015107;28;20077;-76
2021/03/18 01:50:57;;;;;;;15.30;5.35;;;;;;;-0.30;100.00;101645.03;5012207;28;20560;-76
2021/03/18 01:53:25;;;;;;;10.30;5.85;;;;;;;-0.20;99.87;101644.16;5006133;28;20061;-76
2021/03/18 01:55:54;;;;;;;8.90;5.40;;;;;;;-0.23;100.00;101636.38;5012931;28;20138;-76
2021/03/18 01:58:21;;;;;;;14.77;6.40;;;;;;;-0.16;99.55;101637.28;4995017;28;20483;-75
2021/03/18 02:00:52;;;;;;;12.35;5.78;;;;;;;-0.24;99.34;101634.66;5009476;28;20050;-75
2021/03/18 02:03:19;;;;;;;11.85;5.90;;;;;;;-0.16;99.79;101626.94;5002324;28;20478;-76
2021/03/18 02:05:47;;;;;;;10.65;6.03;;;;;;;-0.18;99.70;101637.28;4994745;28;20057;-75
2021/03/18 02:08:14;;;;;;;13.27;5.63;;;;;;;-0.11;99.08;101627.78;4999087;28;20221;-75
2021/03/18 02:10:42;;;;;;;10.90;6.22;;;;;;;-0.02;98.83;101623.47;5033200;28;20054;-75
2021/03/18 02:13:11;;;;;;;8.43;4.75;;;;;;;0.26;98.03;101631.25;4997142;28;20063;-76
2021/03/18 02:15:41;;;;;;;9.63;5.63;;;;;;;0.49;96.63;101628.63;5007049;28;20049;-76
2021/03/18 02:18:18;;;;;;;10.05;5.78;;;;;;;0.51;96.00;101621.75;5003894;28;20053;-75
2021/03/18 02:21:33;;;;;;;9.45;5.15;;;;;;;0.37;95.92;101629.53;5011007;28;20057;-75
2021/03/18 02:24:34;;;;;;;8.45;5.15;;;;;;;0.42;96.54;101621.75;5014030;28;20062;-75
2021/03/18 02:27:06;;;;;;;9.90;4.93;;;;;;;0.67;95.56;101622.56;5013981;28;20145;-75
2021/03/18 02:30:00;;;;;;;9.98;6.05;;;;;;;0.78;94.96;101614.78;5014292;28;20568;-75
2021/03/18 02:32:44;;;;;;;9.13;5.18;;;;;;;0.84;94.31;101625.97;4975179;28;21431;-75
2021/03/18 02:35:54;;;;;;;15.13;5.80;;;;;;;0.96;93.88;101612.97;5000572;28;20072;-75
2021/03/18 02:38:25;;;;;;;9.90;5.70;;;;;;;0.84;93.41;101609.56;4986737;28;20046;-76
2021/03/18 02:41:05;;;;;;;10.02;5.50;;;;;;;0.94;93.28;101617.28;5016939;28;20121;-76
2021/03/18 02:43:38;;;;;;;8.07;5.47;;;;;;;1.07;93.42;101604.28;5008861;28;20123;-75
2021/03/18 02:46:05;;;;;;;9.43;4.90;;;;;;;0.92;94.19;101603.50;5021409;28;20130;-76
2021/03/18 02:48:36;;;;;;;9.38;5.60;;;;;;;0.86;94.13;101606.13;5022246;28;20839;-75
2021/03/18 02:51:04;;;;;;;12.88;6.78;;;;;;;0.80;93.90;101608.69;5012315;28;20058;-76
2021/03/18 02:53:32;;;;;;;11.55;6.43;;;;;;;0.74;93.82;101609.59;5006575;28;20084;-75
2021/03/18 02:56:01;;;;;;;11.02;5.50;;;;;;;0.72;93.92;101613.94;5010791;28;20584;-76
2021/03/18 02:58:31;;;;;;;11.27;6.05;;;;;;;0.49;93.72;101613.09;4993199;28;20049;-76
2021/03/18 03:00:59;;;;;;;9.65;5.60;;;;;;;0.47;94.77;101610.50;5013048;28;20083;-75
2021/03/18 03:03:40;;;;;;;12.18;5.90;;;;;;;0.70;94.20;101607.00;4989824;28;20061;-75
2021/03/18 03:06:08;;;;;;;11.38;5.85;;;;;;;0.69;93.67;101608.75;4997577;28;20058;-76
2021/03/18 03:08:36;;;;;;;10.00;5.30;;;;;;;0.58;94.04;101604.44;5017980;28;20049;-76
2021/03/18 03:11:04;;;;;;;10.57;5.10;;;;;;;0.72;93.90;101610.44;4995701;28;20135;-75
2021/03/18 03:13:33;;;;;;;8.77;4.60;;;;;;;0.80;93.03;101600.94;5005735;28;20063;-76
2021/03/18 03:16:03;;;;;;;13.50;5.35;;;;;;;0.57;93.54;101600.13;5016087;28;20089;-77
2021/03/18 03:18:30;;;;;;;10.73;5.30;;;;;;;0.67;93.97;101602.69;5008779;28;20057;-76
2021/03/18 03:20:58;;;;;;;9.65;5.53;;;;;;;0.69;93.32;101605.28;5009728;28;20421;-76
2021/03/18 03:23:28;;;;;;;9.05;4.90;;;;;;;0.70;93.46;101601.81;4971157;28;20056;-76
2021/03/18 03:25:58;;;;;;;8.77;5.38;;;;;;;0.76;92.81;101599.22;5011208;28;20065;-76
2021/03/18 03:28:26;;;;;;;9.90;5.30;;;;;;;0.71;92.74;101599.22;5009749;28;20140;-77
2021/03/18 03:30:55;;;;;;;7.70;4.68;;;;;;;0.72;93.03;101595.78;4983248;28;20855;-76
2021/03/18 03:33:22;;;;;;;11.48;4.55;;;;;;;0.85;92.59;101593.13;4987726;28;20065;-76
2021/03/18 03:35:49;;;;;;;7.07;4.30;;;;;;;0.83;92.97;101592.28;4996859;28;20057;-76
2021/03/18 03:38:16;;;;;;;6.85;4.43;;;;;;;0.84;93.00;101596.59;4989829;28;20053;-76
2021/03/18 03:40:44;;;;;;;9.45;4.65;;;;;;;0.68;93.45;101599.25;5010502;28;20494;-76
2021/03/18 03:43:10;;;;;;;8.50;4.32;;;;;;;0.61;93.28;101604.44;4976094;28;20041;-76
2021/03/18 03:45:37;;;;;;;6.88;4.82;;;;;;;0.65;93.19;101595.81;4995005;28;20057;-76
2021/03/18 03:48:05;;;;;;;7.03;4.50;;;;;;;0.57;94.00;101590.63;5021659;28;20742;-76
2021/03/18 03:50:32;;;;;;;6.70;4.60;;;;;;;0.61;93.27;101586.31;5000809;28;20572;-78
2021/03/18 03:53:10;;;;;;;9.57;4.82;;;;;;;0.58;93.31;101589.75;4991170;28;20057;-78
2021/03/18 03:55:42;;;;;;;11.13;5.38;;;;;;;0.61;93.58;101581.13;5017347;28;20057;-79
2021/03/18 03:58:29;;;;;;;8.73;5.18;;;;;;;0.54;94.38;101587.16;5012991;28;20053;-79
2021/03/18 04:00:56;;;;;;;9.43;4.68;;;;;;;0.25;94.54;101593.28;5005682;28;20053;-77
2021/03/18 04:03:25;;;;;;;8.95;5.05;;;;;;;0.31;94.75;101594.97;4990801;28;20053;-77
2021/03/18 04:05:56;;;;;;;10.07;5.90;;;;;;;0.32;95.05;101594.16;5009971;28;20050;-77
2021/03/18 04:08:25;;;;;;;10.32;5.15;;;;;;;0.21;95.46;101591.53;4991977;28;20191;-77
2021/03/18 04:10:54;;;;;;;7.35;5.10;;;;;;;0.33;95.58;101588.94;5011438;28;21004;-77
2021/03/18 04:13:21;;;;;;;9.10;5.68;;;;;;;0.10;95.90;101601.06;5006696;28;20057;-78
2021/03/18 04:15:48;;;;;;;13.48;5.78;;;;;;;0.14;96.04;101592.44;4995293;28;20062;-77
2021/03/18 04:18:15;;;;;;;10.80;5.85;;;;;;;0.14;96.68;101595.03;4993381;28;20061;-78
2021/03/18 04:20:43;;;;;;;15.00;6.72;;;;;;;0.18;96.85;101587.25;5012331;28;20054;-77
2021/03/18 04:23:10;;;;;;;12.60;7.13;;;;;;;0.31;96.69;101577.72;4993813;28;20357;-77
2021/03/18 04:25:38;;;;;;;10.40;6.07;;;;;;;0.25;96.41;101583.78;5010658;28;20172;-78
2021/03/18 04:28:09;;;;;;;12.80;6.95;;;;;;;0.28;96.46;101582.91;5023434;28;20045;-77
2021/03/18 04:30:39;;;;;;;12.32;6.45;;;;;;;0.20;96.60;101587.25;5022308;28;20056;-77
2021/03/18 04:33:06;;;;;;;12.18;7.05;;;;;;;0.37;96.20;101579.47;5017264;28;20063;-77
2021/03/18 04:35:33;;;;;;;9.82;6.07;;;;;;;0.58;95.46;101581.13;5011220;28;20076;-77
2021/03/18 04:38:01;;;;;;;12.73;7.32;;;;;;;0.45;95.28;101576.00;4998261;28;20189;-77
2021/03/18 04:40:28;;;;;;;13.82;7.55;;;;;;;0.58;95.33;101576.78;5010037;28;20064;-77
2021/03/18 04:42:56;;;;;;;14.18;7.57;;;;;;;0.66;95.14;101569.88;5008232;28;20136;-77
2021/03/18 04:45:25;;;;;;;13.18;7.85;;;;;;;0.69;95.08;101571.59;4998266;28;20049;-77
2021/03/18 04:47:52;;;;;;;13.82;8.57;;;;;;;0.68;95.01;101567.28;5007497;28;20450;-78
2021/03/18 04:50:21;;;;;;;15.52;8.52;;;;;;;0.68;95.17;101565.56;4992531;28;20049;-78
2021/03/18 04:52:48;;;;;;;16.65;8.90;;;;;;;0.62;95.44;101565.56;5003472;28;20072;-77
2021/03/18 04:55:17;;;;;;;17.77;10.15;;;;;;;0.57;95.89;101561.25;5014179;28;20052;-75
2021/03/18 04:57:47;;;;;;;17.85;9.70;;;;;;;0.56;95.67;101559.53;5013510;28;20090;-77
2021/03/18 05:00:16;;;;;;;21.80;11.88;;;;;;;0.61;95.49;101562.97;4990992;28;20055;-77
2021/03/18 05:02:44;;;;;;;20.52;11.38;;;;;;;0.53;95.80;101573.34;4984871;28;20482;-78
2021/03/18 05:05:19;;;;;;;22.60;11.80;;;;;;;0.47;96.00;101569.06;5011913;28;20057;-76
2021/03/18 05:07:48;;;;;;;19.67;11.20;;;;;;;0.47;96.19;101560.44;5005332;28;20064;-76
2021/03/18 05:10:17;;;;;;;24.83;12.20;;;;;;;0.59;96.08;101563.00;5010566;28;20131;-77
2021/03/18 05:12:44;;;;;;;24.83;12.25;;;;;;;0.62;96.04;101562.13;5003769;28;20053;-76
2021/03/18 05:15:12;;;;;;;24.55;13.27;;;;;;;0.61;96.10;101552.63;4998429;28;20057;-78
2021/03/18 05:17:39;;;;;;;23.85;13.18;;;;;;;0.54;96.36;101556.09;5006967;28;20050;-76
2021/03/18 05:20:09;;;;;;;24.70;11.77;;;;;;;0.64;96.34;101550.03;5009157;28;20587;-76
2021/03/18 05:22:36;;;;;;;25.67;12.57;;;;;;;0.61;96.07;101552.63;5002054;28;20601;-76
2021/03/18 05:25:05;;;;;;;24.80;12.13;;;;;;;0.60;96.46;101551.75;5015879;28;20160;-75
2021/03/18 05:27:31;;;;;;;21.42;12.00;;;;;;;0.70;95.80;101552.59;5011054;28;20446;-77
2021/03/18 05:29:59;;;;;;;21.10;12.40;;;;;;;0.71;96.10;101551.72;5008253;28;20074;-75
2021/03/18 05:32:27;;;;;;;24.50;11.43;;;;;;;0.88;94.78;101549.94;5002384;28;20122;-76
2021/03/18 05:34:54;;;;;;;23.80;11.63;;;;;;;0.71;95.16;101542.22;4979034;28;20046;-75
2021/03/18 05:37:21;;;;;;;21.20;11.90;;;;;;;0.73;95.50;101550.00;4991279;28;20081;-79
2021/03/18 05:39:47;;;;;;;23.17;13.65;;;;;;;0.79;95.55;101546.50;5010877;28;20133;-75
2021/03/18 05:42:16;;;;;;;21.02;11.38;;;;;;;0.85;95.55;101543.88;5008003;28;21100;-77
2021/03/18 05:44:44;;;;;;;24.60;12.73;;;;;;;1.01;94.84;101543.81;5011089;28;20056;-77
2021/03/18 05:47:12;;;;;;;21.25;11.02;;;;;;;1.11;94.14;101541.19;5009700;28;20201;-76
2021/03/18 05:49:39;;;;;;;23.73;11.73;;;;;;;1.02;93.80;101545.53;5010129;28;20053;-75
2021/03/18 05:52:10;;;;;;;25.60;13.00;;;;;;;1.10;93.74;101547.25;5006351;28;20100;-77
2021/03/18 05:54:47;;;;;;;19.63;11.63;;;;;;;1.06;93.60;101548.97;5011490;28;20060;-77
2021/03/18 05:57:15;;;;;;;20.02;11.40;;;;;;;1.17;93.30;101546.31;5018311;28;20076;-75
2021/03/18 05:59:43;;;;;;;21.35;11.02;;;;;;;1.33;92.55;101540.19;4997719;28;20560;-77
2021/03/18 06:02:10;;;;;;;21.02;11.15;;;;;;;1.48;92.68;101541.81;5007791;28;20063;-77
2021/03/18 06:04:37;;;;;;;20.15;11.20;;;;;;;1.58;91.89;101537.44;5006898;28;20063;-76
2021/03/18 06:07:04;;;;;;;22.10;11.77;;;;;;;1.71;91.33;101539.94;5005454;28;20371;-77
2021/03/18 06:09:31;;;;;;;35.70;12.10;;;;;;;1.78;90.92;101543.31;4982864;28;20046;-74
2021/03/18 06:11:58;;;;;;;21.83;11.88;;;;;;;2.08;89.71;101537.00;5005404;28;20368;-71
2021/03/18 06:14:25;;;;;;;18.77;10.50;;;;;;;2.19;88.32;101537.75;5009403;28;20053;-78
2021/03/18 06:16:53;;;;;;;19.67;11.02;;;;;;;2.28;87.87;101534.22;4990932;28;20073;-76
2021/03/18 06:19:21;;;;;;;24.48;12.82;;;;;;;2.29;87.73;101536.78;5002946;28;20568;-75
2021/03/18 06:21:51;;;;;;;21.15;12.52;;;;;;;2.23;87.96;101538.59;5004271;28;20108;-76
2021/03/18 06:24:23;;;;;;;21.20;12.13;;;;;;;2.20;87.80;101530.81;5006232;28;20744;-74
2021/03/18 06:26:50;;;;;;;26.50;13.90;;;;;;;2.19;88.21;101534.31;5005637;28;20060;-75
2021/03/18 06:29:35;;;;;;;24.08;13.13;;;;;;;2.31;88.15;101531.59;5013085;28;20053;-77
2021/03/18 06:32:15;;;;;;;27.80;13.93;;;;;;;2.43;87.13;101538.38;5012715;28;20061;-75
2021/03/18 06:34:52;;;;;;;24.75;14.80;;;;;;;2.51;87.28;101528.75;5016287;28;20061;-77
2021/03/18 06:37:32;;;;;;;29.92;14.90;;;;;;;2.54;87.06;101529.59;5017421;28;20065;-77
2021/03/18 06:40:14;;;;;;;25.75;12.77;;;;;;;2.71;86.25;101528.56;5016921;28;20046;-75
2021/03/18 06:42:57;;;;;;;23.55;12.32;;;;;;;2.73;85.90;101529.38;5007973;28;20053;-77
2021/03/18 06:45:38;;;;;;;23.50;11.73;;;;;;;2.72;86.08;101530.25;5010280;28;20057;-76
2021/03/18 06:48:08;;;;;;;24.25;13.20;;;;;;;2.42;86.92;101532.31;4995253;28;20067;-75
2021/03/18 06:50:42;;;;;;;30.63;12.88;;;;;;;2.33;87.69;101536.75;4997556;28;20057;-75
2021/03/18 06:53:24;;;;;;;26.35;14.18;;;;;;;2.31;88.62;101535.94;5009268;28;20053;-77
2021/03/18 06:55:52;;;;;;;21.55;12.02;;;;;;;2.47;87.30;101521.88;5010495;28;20041;-75
2021/03/18 06:58:27;;;;;;;23.40;12.10;;;;;;;2.57;87.61;101526.13;4996539;28;20184;-76
2021/03/18 07:00:59;;;;;;;26.88;11.52;;;;;;;2.74;86.85;101524.16;5013471;28;20050;-77
2021/03/18 07:03:38;;;;;;;19.90;10.20;;;;;;;2.91;84.80;101529.16;4988449;28;20378;-77
2021/03/18 07:06:08;;;;;;;26.13;10.57;;;;;;;2.68;85.83;101525.97;4977115;28;20045;-76
2021/03/18 07:08:37;;;;;;;16.63;9.15;;;;;;;2.88;84.83;101521.41;5008222;28;20068;-77
2021/03/18 07:11:19;;;;;;;18.83;10.20;;;;;;;2.87;84.75;101518.81;5011870;28;20054;-76
2021/03/18 07:13:46;;;;;;;14.73;9.13;;;;;;;3.95;80.39;101521.53;5002662;28;20438;-77
2021/03/18 07:16:13;;;;;;;19.38;9.25;;;;;;;4.41;77.62;101513.72;5019982;28;20050;-73
2021/03/18 07:18:42;;;;;;;16.17;9.07;;;;;;;5.38;74.36;101522.13;5005059;28;20049;-74
2021/03/18 07:21:12;;;;;;;14.13;7.60;;;;;;;6.12;71.29;101518.59;4997465;28;20555;-75
2021/03/18 07:23:41;;;;;;;16.52;7.20;;;;;;;6.29;69.39;101508.53;5006815;28;20054;-74
2021/03/18 07:26:19;;;;;;;15.65;7.90;;;;;;;6.53;69.19;101507.03;5017797;28;20067;-74
2021/03/18 07:29:12;;;;;;;12.65;7.55;;;;;;;8.96;60.98;101506.88;4994143;28;20060;-73
2021/03/18 07:31:40;;;;;;;12.48;6.13;;;;;;;10.61;54.47;101500.00;5010986;28;20064;-74
2021/03/18 07:34:07;;;;;;;13.68;6.78;;;;;;;11.41;51.57;101496.28;5014306;28;20058;-73
2021/03/18 07:36:35;;;;;;;11.55;5.97;;;;;;;11.91;50.09;101496.44;5018151;28;20061;-74
2021/03/18 07:39:04;;;;;;;13.45;6.13;;;;;;;10.58;52.62;101500.16;5011059;28;20144;-74
2021/03/18 07:41:32;;;;;;;11.73;6.53;;;;;;;13.29;46.36;101482.97;5011403;28;20046;-73
2021/03/18 07:44:00;;;;;;;16.08;7.22;;;;;;;13.49;45.48;101485.31;5033070;28;20544;-74
2021/03/18 07:46:27;;;;;;;17.55;6.75;;;;;;;12.70;47.00;101487.06;5000574;28;20050;-74
2021/03/18 07:49:00;;;;;;;15.27;6.65;;;;;;;12.90;46.34;101487.69;5011400;28;20057;-74
2021/03/18 07:51:30;;;;;;;12.27;7.22;;;;;;;13.84;44.36;101479.78;5009220;28;20069;-75
2021/03/18 07:53:59;;;;;;;15.23;8.63;;;;;;;12.92;44.68;101482.31;5011300;28;20148;-74
2021/03/18 07:56:26;;;;;;;21.75;7.90;;;;;;;12.66;45.80;101475.84;5013163;28;20053;-74
2021/03/18 07:58:53;;;;;;;16.70;9.02;;;;;;;12.29;45.99;101474.28;4974286;28;20054;-74
2021/03/18 08:01:32;;;;;;;13.30;8.52;;;;;;;12.97;44.65;101474.13;4993009;28;20709;-74
2021/03/18 08:04:01;;;;;;;19.65;9.15;;;;;;;14.52;41.96;101469.47;5012361;28;20057;-72
2021/03/18 08:06:39;;;;;;;33.42;10.07;;;;;;;14.07;41.90;101468.66;5013679;28;20068;-73
2021/03/18 08:09:17;;;;;;;12.82;7.40;;;;;;;15.52;39.01;101460.44;5011951;28;20521;-73
2021/03/18 08:11:45;;;;;;;13.23;7.78;;;;;;;14.38;40.57;101464.16;5008506;28;20048;-74
2021/03/18 08:14:13;;;;;;;19.42;7.88;;;;;;;14.31;41.94;101465.47;5013962;28;20061;-72
2021/03/18 08:16:40;;;;;;;16.65;8.45;;;;;;;14.76;40.45;101464.44;5014746;28;20435;-73
2021/03/18 08:19:14;;;;;;;14.93;7.70;;;;;;;15.50;39.51;101454.41;5012795;28;20058;-73
2021/03/18 08:21:54;;;;;;;10.65;8.35;;;;;;;14.62;39.56;101462.66;5012297;28;20097;-73
2021/03/18 08:24:20;;;;;;;17.50;8.07;;;;;;;15.50;39.36;101455.25;5012649;28;20233;-72
2021/03/18 08:26:49;;;;;;;10.07;7.20;;;;;;;15.98;37.49;101446.75;5013949;28;20485;-73
2021/03/18 08:29:17;;;;;;;13.05;7.70;;;;;;;15.64;38.40;101452.53;5009867;28;20053;-72
2021/03/18 08:31:51;;;;;;;13.70;8.38;;;;;;;14.32;40.12;101445.97;5010991;28;20057;-73
2021/03/18 08:34:20;;;;;;;16.73;8.88;;;;;;;15.27;39.26;101453.25;5012800;28;20061;-73
2021/03/18 08:36:55;;;;;;;14.80;8.20;;;;;;;15.02;39.62;101452.19;5006916;28;20057;-73
2021/03/18 08:39:37;;;;;;;16.23;8.68;;;;;;;15.70;38.12;101445.97;5013655;28;20057;-73
2021/03/18 08:42:05;;;;;;;14.52;8.02;;;;;;;12.70;45.61;101447.44;5008337;28;20053;-74
2021/03/18 08:44:42;;;;;;;18.98;7.88;;;;;;;11.31;47.14;101450.22;4994619;28;20111;-73
2021/03/18 08:47:13;;;;;;;26.25;10.10;;;;;;;11.53;48.31;101445.59;5014340;28;20241;-74
2021/03/18 08:49:43;;;;;;;27.77;10.10;;;;;;;13.77;44.63;101442.22;5011749;28;20144;-73
2021/03/18 08:52:12;;;;;;;14.18;8.32;;;;;;;12.36;45.73;101442.19;5011338;28;20493;-74
2021/03/18 08:54:39;;;;;;;16.88;8.43;;;;;;;11.05;48.65;101449.69;5007185;28;20064;-72
2021/03/18 08:57:14;;;;;;;14.02;7.50;;;;;;;9.80;52.74;101450.06;5008293;28;20056;-74
2021/03/18 08:59:54;;;;;;;15.87;6.77;;;;;;;8.94;53.75;101450.91;4991713;28;20056;-74
2021/03/18 09:02:31;;;;;;;20.50;7.95;;;;;;;8.48;56.56;101443.94;4992344;28;20046;-73
2021/03/18 09:05:00;;;;;;;18.05;9.13;;;;;;;9.20;54.62;101443.78;5009265;28;20054;-74
2021/03/18 09:07:29;;;;;;;13.32;7.90;;;;;;;9.10;55.23;101444.16;5011111;28;20107;-73
2021/03/18 09:10:15;;;;;;;17.40;7.70;;;;;;;9.33;54.93;101440.59;5011453;28;20077;-74
2021/03/18 09:12:43;;;;;;;;;;;;;;;8.79;55.00;101441.00;5011119;28;20812;-74
2021/03/18 09:15:10;;;;;;;29.10;8.57;;;;;;;8.78;56.63;101439.28;5013207;28;19929;-73
2021/03/18 09:17:38;;;;;;;11.95;6.57;;;;;;;8.94;54.35;101436.94;5010490;28;20129;-74
2021/03/18 09:20:10;;;;;;;40.47;8.35;;;;;;;8.57;55.58;101447.06;5012008;28;20529;-74
2021/03/18 09:22:37;;;;;;;17.92;6.45;;;;;;;8.06;56.24;101447.16;5007082;28;20094;-74
2021/03/18 09:25:06;;;;;;;12.00;6.85;;;;;;;8.34;55.33;101436.53;5008301;28;20068;-74
2021/03/18 09:27:44;;;;;;;9.80;5.80;;;;;;;8.35;55.62;101431.22;4996250;28;20081;-74
2021/03/18 09:30:27;;;;;;;12.55;6.70;;;;;;;8.13;56.43;101446.88;5012250;28;20464;-74
2021/03/18 09:32:55;;;;;;;15.15;6.43;;;;;;;8.09;56.32;101445.28;5005755;28;20054;-74
2021/03/18 09:35:24;;;;;;;15.48;7.35;;;;;;;8.15;57.23;101443.34;5011283;28;20068;-73
2021/03/18 09:37:57;;;;;;;14.15;7.53;;;;;;;8.08;58.56;101445.34;5008258;28;20049;-73
2021/03/18 09:40:34;;;;;;;11.95;7.85;;;;;;;8.08;58.95;101440.97;5012662;28;20473;-74
2021/03/18 09:43:02;;;;;;;17.95;7.95;;;;;;;8.52;58.11;101445.53;5004671;28;20061;-73
2021/03/18 09:45:29;;;;;;;14.93;8.45;;;;;;;8.89;57.17;101445.00;5013182;28;20056;-73
2021/03/18 09:47:56;;;;;;;15.70;9.30;;;;;;;8.89;57.15;101447.63;5008932;28;20061;-73
2021/03/18 09:50:26;;;;;;;14.68;9.18;;;;;;;8.62;56.70;101441.66;5017570;23;20046;-72
2021/03/18 09:53:10;;;;;;;19.30;9.52;;;;;;;8.57;57.84;101444.44;4992218;28;20117;-71
2021/03/18 09:55:38;;;;;;;12.68;7.20;;;;;;;8.46;57.53;101445.75;4999899;28;20086;-73
2021/03/18 09:58:13;;;;;;;18.67;7.78;;;;;;;8.25;59.21;101444.75;4997469;28;20072;-72
2021/03/18 10:00:40;;;;;;;11.38;7.18;;;;;;;7.68;61.11;101443.25;4979849;28;20077;-73
2021/03/18 10:03:08;;;;;;;13.60;7.90;;;;;;;7.28;62.64;101439.31;4981291;28;20061;-71
2021/03/18 10:05:35;;;;;;;15.52;8.48;;;;;;;7.93;61.28;101438.88;4988061;28;20105;-74
2021/03/18 10:11:53;;;;;;;19.70;6.77;;;;;;;8.13;60.32;101433.78;4978555;28;20076;-73
2021/03/18 10:14:31;;;;;;;30.63;8.20;;;;;;;7.10;62.78;101440.75;4979662;28;20065;-71
2021/03/18 10:17:25;;;;;;;15.73;8.23;;;;;;;6.49;65.16;101440.84;4960100;28;20050;-72
2021/03/18 10:19:58;;;;;;;29.25;8.52;;;;;;;6.55;65.45;101430.22;4979187;28;20537;-70
2021/03/18 10:22:37;;;;;;;19.15;8.40;;;;;;;6.73;67.15;101436.66;4975991;28;20058;-71
2021/03/18 10:25:12;;;;;;;15.15;7.07;;;;;;;6.51;66.33;101425.97;4991446;28;20129;-71
2021/03/18 10:27:43;;;;;;;16.38;5.90;;;;;;;6.72;64.68;101424.47;4980976;28;20062;-73
2021/03/18 10:30:19;;;;;;;14.60;5.40;;;;;;;6.52;65.13;101421.59;4980992;28;20073;-72
2021/03/18 10:33:06;;;;;;;;;;;;;;;6.77;64.25;101414.72;4977652;28;20062;-72
2021/03/18 10:35:34;;;;;;;;;;;;;;;7.08;62.33;101413.78;4986025;28;19968;-73
2021/03/18 10:38:02;;;;;;;9.85;5.30;;;;;;;6.73;63.58;101409.63;4978094;28;19933;-73
2021/03/18 10:40:36;;;;;;;10.52;5.13;;;;;;;6.28;63.94;101408.31;4987648;28;20062;-71
2021/03/18 10:43:15;;;;;;;11.55;5.47;;;;;;;6.29;65.07;101404.81;4964024;28;20045;-72
2021/03/18 10:45:44;;;;;;;13.45;5.82;;;;;;;6.66;65.07;101397.63;4983057;28;20058;-73
2021/03/18 10:48:10;;;;;;;9.15;5.40;;;;;;;7.20;62.55;101399.41;4978538;28;20137;-71
2021/03/18 10:50:38;;;;;;;13.73;5.45;;;;;;;7.39;60.98;101392.69;4983798;28;20066;-72
2021/03/18 10:53:08;;;;;;;8.57;5.65;;;;;;;7.63;60.58;101383.13;4972998;28;20059;-71
2021/03/18 10:55:45;;;;;;;8.90;4.90;;;;;;;7.82;60.23;101385.97;4977654;28;20055;-71
2021/03/18 10:58:18;;;;;;;11.63;4.95;;;;;;;8.30;57.67;101385.09;4981468;28;20053;-71
2021/03/18 11:00:46;;;;;;;7.97;5.07;;;;;;;8.08;57.63;101375.41;4992654;28;20601;-73
2021/03/18 11:03:14;;;;;;;10.30;5.20;;;;;;;8.21;57.93;101374.94;4979559;28;20069;-72
2021/03/18 11:05:48;;;;;;;11.65;6.22;;;;;;;7.86;59.39;101374.47;4990541;28;20058;-71
2021/03/18 11:08:16;;;;;;;12.32;5.35;;;;;;;7.47;59.70;101368.84;4998682;28;20149;-71
2021/03/18 11:10:50;;;;;;;14.57;5.57;;;;;;;8.19;58.60;101369.75;4995559;28;20066;-72
2021/03/18 11:13:29;;;;;;;8.38;5.28;;;;;;;7.98;57.47;101367.94;4984090;28;20161;-72
2021/03/18 11:16:01;;;;;;;9.63;5.43;;;;;;;8.38;57.21;101361.25;4973964;28;20058;-73
2021/03/18 11:18:32;;;;;;;10.52;5.78;;;;;;;7.93;58.00;101354.13;4989647;28;20062;-72
2021/03/18 11:21:00;;;;;;;12.60;6.15;;;;;;;8.43;57.13;101354.91;5014103;28;20110;-72
2021/03/18 11:23:32;;;;;;;13.10;5.50;;;;;;;8.51;55.55;101355.47;4977512;28;20069;-71
2021/03/18 11:26:01;;;;;;;8.65;4.55;;;;;;;9.02;53.14;101342.94;5006601;28;20052;-73
2021/03/18 11:28:29;;;;;;;7.30;4.70;;;;;;;9.37;52.27;101333.59;4984805;28;20145;-72
2021/03/18 11:30:57;;;;;;;15.43;5.50;;;;;;;8.48;54.34;101331.09;4985753;28;20046;-71
2021/03/18 11:33:33;;;;;;;24.25;5.63;;;;;;;7.67;56.51;101336.72;4976494;28;20061;-71
2021/03/18 11:36:04;;;;;;;9.55;5.53;;;;;;;7.95;56.42;101328.69;4980140;28;20118;-74
2021/03/18 11:38:32;;;;;;;10.30;4.95;;;;;;;8.20;56.63;101326.03;4977687;28;20066;-72
2021/03/18 11:41:00;;;;;;;8.02;4.88;;;;;;;8.28;56.11;101318.72;4988496;28;20106;-72
2021/03/18 11:43:27;;;;;;;8.23;5.85;;;;;;;6.71;60.45;101318.13;4955981;28;20146;-74